x

Pt Arena - 19nm North Of Point Arena, Ca (46014) Wave Buoy

1:50am - Wed 1st Oct 2014 All times are PDT. -7 hours from GMT.

  • Sig Wave height 8.9ft
  • Peak Period 8s
  • Average Period 7s
  • Wind
    16mph, 20mph gusts
  • Sea Temp 57°f
  • Air Temp 58°f
  • Sea Pressure 1013.4mb
  • Pt Arena - 19nm North Of Point Arena, Ca
  • Pt Arena - 19nm North Of Point Arena, Ca

More Historic Weather Station data

Upgrade to MSW Pro to gain access to the past 30 days of data for over 8000 Wavebouys and Weather Stations around the globe.

Join Pro

Comparision Forecast

View Surf forecast
   
Wed 10/01 1:50am 9ft 8s 7s 16 20 mph 1013.4mb 57f 58f
12:50am 9ft 8s 7s 20 22 mph 1013.3mb 57f 58f
Tue 09/30 11:50pm 9ft 8s 6s 20 25 mph 1013.3mb 57f 59f
10:50pm 9ft 8s 7s 25 31 mph 1013mb 57f 59f
9:50pm 10ft 8s 6s 25 31 mph 1013.4mb 57f 59f
8:50pm 10ft 8s 6s 29 34 mph 1013.1mb 57f 59f
7:50pm 11ft 8s 6s 31 36 mph 1012.7mb 57f 60f
6:50pm  -   -   -  31 40 mph 1012.5mb 57f 60f
5:50pm 12.5ft 8s 7s 31 38 mph 1012.5mb 58f 60f
4:50pm 11.5ft 8s 7s 31 38 mph 1013mb 58f 61f
3:50pm 10.5ft 8s 6s 29 36 mph 1013.4mb 58f 60f
2:50pm 10ft 8s 6s 29 34 mph 1014mb 58f 61f
1:50pm 8.5ft 8s 6s 27 31 mph 1014.9mb 58f 61f
12:50pm 7ft 7s 6s 25 29 mph 1015.6mb 59f 60f
11:50am 6.5ft 11s 6s 20 25 mph 1016.2mb 59f 60f
10:50am 7ft 12s 6s 20 27 mph 1016.2mb 59f 60f
9:50am 7ft 12s 6s 20 22 mph 1016.2mb 59f 60f
8:50am 8ft 11s 6s 22 25 mph 1015.9mb 59f 60f
7:50am 8ft 11s 6s 25 29 mph 1015.7mb 59f 60f
6:50am  -   -   -  25 29 mph 1015.7mb 59f 60f
5:50am 6ft 12s 6s 25 29 mph 1015.4mb 60f 61f
4:50am 6ft 12s 6s 13 20 mph 1015.5mb 60f 60f
3:50am 6ft 13s 6s 18 22 mph 1015.5mb 60f 60f
2:50am 6ft 12s 6s 20 25 mph 1016.1mb 60f 60f
1:50am  -   -   -  20 25 mph 1016.4mb 60f 60f
12:50am 6ft 13s 6s 16 18 mph 1016.5mb 60f 60f
Mon 09/29 11:50pm 5ft 13s 6s 18 20 mph 1017mb 59f 61f
10:50pm 5ft 13s 6s 13 16 mph 1017.5mb 59f 61f
9:50pm 5ft 10s 6s 13 18 mph 1017.1mb 60f 61f
8:50pm 4.5ft 9s 6s 13 16 mph 1017.1mb 60f 60f
7:50pm 5ft 8s 6s 13 20 mph 1016.9mb 60f 60f
6:50pm  -   -   -  13 16 mph 1016.9mb 60f 61f
5:50pm 4ft 8s 5s 16 18 mph 1016.7mb 60f 61f
4:50pm 3.5ft 8s 5s 16 18 mph 1016.7mb 60f 61f
3:50pm 4ft 15s 5s 11 13 mph 1016.8mb 60f 60f
2:50pm 4ft 8s 5s 13 16 mph 1016.9mb 60f 60f
1:50pm 3.5ft 7s 5s 16 18 mph 1017.5mb 60f 60f
12:50pm 3.5ft 8s 5s 13 16 mph 1017.5mb 60f 60f
11:50am 4ft 8s 5s 13 16 mph 1017.6mb 60f 60f
10:50am 3.5ft 7s 5s 13 16 mph 1017.8mb 60f 60f
9:50am 4ft 8s 5s 13 18 mph 1017.5mb 60f 60f
8:50am 4ft 7s 5s 13 16 mph 1017.2mb 60f 60f
7:50am 4ft 6s 5s 4 7 mph 1016.9mb 60f 58f
6:50am 4.5ft 7s 5s 7
mph
1016.4mb 60f 58f
5:50am 4.5ft 7s 6s 2 4 mph 1015.7mb 60f 58f
4:50am 4.5ft 8s 6s 4 7 mph 1015mb 60f 58f
3:50am 5ft 8s 6s  -  4 mph 1015.3mb 60f 58f
2:50am 5ft 8s 6s 4 7 mph 1015.2mb 60f 59f
1:50am  -   -   -  4 7 mph 1014.9mb 60f 59f
12:50am  -   -   -   -  2 mph 1015mb 60f 60f
Sun 09/28 11:50pm 6ft 8s 6s  -  2 mph 1015.1mb 60f 60f
10:50pm 5.5ft 8s 6s 9 11 mph 1014.8mb 60f 60f
9:50pm  -   -   -  9 11 mph 1014.8mb 60f 60f
8:50pm 5.5ft 8s 6s 7 9 mph 1014.1mb 60f 60f
7:50pm 5.5ft 8s 6s 11 13 mph 1013.8mb 61f 60f
6:50pm  -   -   -  11 13 mph 1013.2mb 61f 60f
5:50pm 6ft 9s 6s 16 18 mph 1012.9mb 61f 60f
4:50pm 6.5ft 9s 6s 11 13 mph 1013.2mb 61f 61f
2:50pm 7ft 8s 6s 13 16 mph 1012.8mb 61f 61f
1:50pm 6.5ft 10s 6s 9 11 mph 1012.5mb 60f 61f
12:50pm 7ft 10s 6s 13 16 mph 1012.5mb 61f 60f
11:50am 7ft 10s 6s 2 7 mph 1012.5mb 61f 60f
10:50am 7.5ft 10s 7s 2 4 mph 1012.4mb 60f 59f
9:50am  -   -   -  4 7 mph 1012.1mb 60f 58f
8:50am 8ft 9s 7s 2 7 mph 1011.7mb 60f 58f
7:50am 8ft 9s 7s  -  2 mph 1011.2mb 59f 57f
6:50am 8ft 9s 7s 4
mph
1010.7mb 59f 56f
5:50am 8ft 10s 7s 2 4 mph 1010.3mb 59f 57f
4:50am 8ft 10s 7s  -  2 mph 1010.2mb 60f 58f
3:50am  -   -   -  9 11 mph 1010.7mb 60f 58f
2:50am 8ft 8s 7s 16 18 mph 1010.4mb 60f 60f
1:50am 9ft 9s 7s 16 18 mph 1010.9mb 60f 60f
Sat 09/27 11:50pm 9.5ft 9s 7s 22 27 mph 1011.1mb 60f 61f
10:50pm  -   -   -  27 31 mph 1011mb 61f 61f
9:50pm  -   -   -  29 36 mph 1011mb 61f 61f
8:50pm  -   -   -  29
mph
- - 62f
7:50pm 12.5ft 8s 7s 29 36 mph 1011mb 61f 61f
6:50pm  -   -   -  31 38 mph 1010.6mb 61f 62f
5:50pm 11ft 8s 6s 31 38 mph 1010.7mb 61f 62f
4:50pm 9ft 7s 6s 22 27 mph 1011.7mb 61f 61f
3:50pm 9.5ft 7s 6s 22 27 mph 1012.1mb 61f 61f
2:50pm  -   -   -  22
mph
1012.7mb 61f 61f
1:50pm  -   -   -  22 29 mph 1013.3mb 61f 61f
12:50pm 9ft 7s 7s 22 27 mph 1014.1mb 61f 61f
11:50am 9ft 11s 7s 22 27 mph 1014.3mb 61f 61f
10:50am 8.5ft 11s 7s 22 27 mph 1014.7mb 61f 61f
9:50am 10ft 11s 7s 22 27 mph 1014.7mb 61f 61f